Kennedy Helen — WDF5662 — position and weather

sailwx.info

Track history (hours):
 
Tides and Currents Weather Stations Pressure Air Temp Water Temp Dewpoint Dewpoint Depression Visibility Wind Speed Wind Dir Waves Ship Positions

Kennedy Helen

Owner: Heinrichs, Keith E, New Gretna, NJ. More information available from US FCC via Universal Licensing System and Coast Guard Vessel Documentation Center.

Last reported at 2018-Jul-14 22:19 UTC. Time now 2018-Jul-19 13:11 UTC.
Position N 39°45' W 074°07'.

Length 14 m.

Type: Fishing. MMSI: 367465880.

Date/timePositionNaut miles runAvg speedWind from/ knotsBaromVisibWave heightAir tempDewpointWater temp
2018-Jul-14 22:19N 39°45' W 074°07'2 6.3
2018-Jul-14 22:00N 39°45' W 074°04'5 9.2
2018-Jul-14 21:30N 39°40' W 074°04'5 9.2
2018-Jul-14 21:00N 39°36' W 074°04'5 9.1
2018-Jul-14 20:27N 39°31' W 074°05'4 8.9
2018-Jul-14 20:00N 39°27' W 074°05'4 8.8
2018-Jul-14 19:30N 39°22' W 074°05'40 5.9
2018-Jul-14 12:39N 38°42' W 074°03'1 1.0
2018-Jul-14 12:09N 38°42' W 074°02'1 4.9
2018-Jul-14 11:57N 38°42' W 074°01'2 2.5
2018-Jul-14 11:02N 38°44' W 074°03'1 9.2
2018-Jul-14 10:56N 38°45' W 074°03'4 9.0
2018-Jul-14 10:30N 38°49' W 074°03'5 9.1
2018-Jul-14 10:00N 38°54' W 074°03'4 8.8
2018-Jul-14 09:30N 38°58' W 074°03'4 8.9
2018-Jul-14 09:00N 39°02' W 074°03'4 8.9
2018-Jul-14 08:30N 39°07' W 074°03'4 8.9
2018-Jul-14 08:00N 39°11' W 074°03'4 8.9
2018-Jul-14 07:30N 39°16' W 074°03'5 8.9
2018-Jul-14 07:00N 39°20' W 074°03'4 8.8
2018-Jul-14 06:30N 39°25' W 074°03'4 8.8
2018-Jul-14 06:00N 39°29' W 074°03'5 8.7
2018-Jul-14 05:29N 39°34' W 074°03'4 8.7
2018-Jul-14 04:59N 39°38' W 074°03'4 8.7
2018-Jul-14 04:30N 39°42' W 074°03'4 8.0
2018-Jul-14 03:57N 39°46' W 074°06'0 0.0
2018-Jul-12 22:33N 39°46' W 074°07'1 8.8
2018-Jul-12 22:29N 39°46' W 074°06'4 9.1
2018-Jul-12 22:00N 39°42' W 074°03'5 9.1
2018-Jul-12 21:30N 39°38' W 074°04'56 7.3
2018-Jul-12 13:47N 38°42' W 074°03'56 6.4
2018-Jul-12 05:02N 39°37' W 074°01'1 8.4
2018-Jul-12 04:53N 39°38' W 074°02'3 8.7
2018-Jul-12 04:30N 39°42' W 074°02'4 8.4
2018-Jul-12 04:00N 39°45' W 074°05'  
2018-Jul-09 22:42N 39°46' W 074°07'2 8.3
2018-Jul-09 22:30N 39°45' W 074°05'5 8.9
2018-Jul-09 21:59N 39°41' W 074°02'4 9.0
2018-Jul-09 21:30N 39°37' W 074°02'5 9.4
2018-Jul-09 20:59N 39°32' W 074°04'50 7.7
2018-Jul-09 14:32N 38°42' W 074°02'0 4.7
2018-Jul-09 14:27N 38°42' W 074°02'1 2.5
2018-Jul-09 13:59N 38°42' W 074°03'2 3.1
2018-Jul-09 13:21N 38°43' W 074°01'2 4.8
2018-Jul-09 12:53N 38°41' W 074°03'1 2.0
2018-Jul-09 12:30N 38°42' W 074°03'1 2.5
2018-Jul-09 12:00N 38°43' W 074°01'5 5.1
2018-Jul-09 11:01N 38°47' W 074°03'0 8.8
2018-Jul-09 11:00N 38°48' W 074°03'5 8.9
2018-Jul-09 10:29N 38°52' W 074°03'20 8.7
2018-Jul-09 08:13N 39°12' W 074°02'2 8.6
2018-Jul-09 08:00N 39°14' W 074°02'5 8.6
2018-Jul-09 07:25N 39°19' W 074°02'4 8.4
2018-Jul-09 06:59N 39°22' W 074°02'4 8.4
2018-Jul-09 06:30N 39°27' W 074°02'4 8.4
2018-Jul-09 05:59N 39°31' W 074°02'4 8.4
2018-Jul-09 05:28N 39°35' W 074°02'4 8.5
2018-Jul-09 04:58N 39°39' W 074°02'4 8.6
2018-Jul-09 04:30N 39°43' W 074°03'4 7.6
2018-Jul-09 04:00N 39°46' W 074°06'  
Track history (hours):
 
Tides and Currents Weather Stations Pressure Air Temp Water Temp Dewpoint Dewpoint Depression Visibility Wind Speed Wind Dir Waves Ship Positions

Kennedy Helen

Owner: Heinrichs, Keith E, New Gretna, NJ. More information available from US FCC via Universal Licensing System and Coast Guard Vessel Documentation Center.

Last reported at 2018-Jul-14 22:19 UTC. Time now 2018-Jul-19 13:11 UTC.
Position N 39°45' W 074°07'.

Length 14 m.

Type: Fishing. MMSI: 367465880.

Date/timePositionNaut miles runAvg speedWind from/ knotsBaromVisibWave heightAir tempDewpointWater temp
2018-Jul-14 22:19N 39°45' W 074°07'2 6.3
2018-Jul-14 22:00N 39°45' W 074°04'5 9.2
2018-Jul-14 21:30N 39°40' W 074°04'5 9.2
2018-Jul-14 21:00N 39°36' W 074°04'5 9.1
2018-Jul-14 20:27N 39°31' W 074°05'4 8.9
2018-Jul-14 20:00N 39°27' W 074°05'4 8.8
2018-Jul-14 19:30N 39°22' W 074°05'40 5.9
2018-Jul-14 12:39N 38°42' W 074°03'1 1.0
2018-Jul-14 12:09N 38°42' W 074°02'1 4.9
2018-Jul-14 11:57N 38°42' W 074°01'2 2.5
2018-Jul-14 11:02N 38°44' W 074°03'1 9.2
2018-Jul-14 10:56N 38°45' W 074°03'4 9.0
2018-Jul-14 10:30N 38°49' W 074°03'5 9.1
2018-Jul-14 10:00N 38°54' W 074°03'4 8.8
2018-Jul-14 09:30N 38°58' W 074°03'4 8.9
2018-Jul-14 09:00N 39°02' W 074°03'4 8.9
2018-Jul-14 08:30N 39°07' W 074°03'4 8.9
2018-Jul-14 08:00N 39°11' W 074°03'4 8.9
2018-Jul-14 07:30N 39°16' W 074°03'5 8.9
2018-Jul-14 07:00N 39°20' W 074°03'4 8.8
2018-Jul-14 06:30N 39°25' W 074°03'4 8.8
2018-Jul-14 06:00N 39°29' W 074°03'5 8.7
2018-Jul-14 05:29N 39°34' W 074°03'4 8.7
2018-Jul-14 04:59N 39°38' W 074°03'4 8.7
2018-Jul-14 04:30N 39°42' W 074°03'4 8.0
2018-Jul-14 03:57N 39°46' W 074°06'0 0.0
2018-Jul-12 22:33N 39°46' W 074°07'1 8.8
2018-Jul-12 22:29N 39°46' W 074°06'4 9.1
2018-Jul-12 22:00N 39°42' W 074°03'5 9.1
2018-Jul-12 21:30N 39°38' W 074°04'56 7.3
2018-Jul-12 13:47N 38°42' W 074°03'56 6.4
2018-Jul-12 05:02N 39°37' W 074°01'1 8.4
2018-Jul-12 04:53N 39°38' W 074°02'3 8.7
2018-Jul-12 04:30N 39°42' W 074°02'4 8.4
2018-Jul-12 04:00N 39°45' W 074°05'  
2018-Jul-09 22:42N 39°46' W 074°07'2 8.3
2018-Jul-09 22:30N 39°45' W 074°05'5 8.9
2018-Jul-09 21:59N 39°41' W 074°02'4 9.0
2018-Jul-09 21:30N 39°37' W 074°02'5 9.4
2018-Jul-09 20:59N 39°32' W 074°04'50 7.7
2018-Jul-09 14:32N 38°42' W 074°02'0 4.7
2018-Jul-09 14:27N 38°42' W 074°02'1 2.5
2018-Jul-09 13:59N 38°42' W 074°03'2 3.1
2018-Jul-09 13:21N 38°43' W 074°01'2 4.8
2018-Jul-09 12:53N 38°41' W 074°03'1 2.0
2018-Jul-09 12:30N 38°42' W 074°03'1 2.5
2018-Jul-09 12:00N 38°43' W 074°01'5 5.1
2018-Jul-09 11:01N 38°47' W 074°03'0 8.8
2018-Jul-09 11:00N 38°48' W 074°03'5 8.9
2018-Jul-09 10:29N 38°52' W 074°03'20 8.7
2018-Jul-09 08:13N 39°12' W 074°02'2 8.6
2018-Jul-09 08:00N 39°14' W 074°02'5 8.6
2018-Jul-09 07:25N 39°19' W 074°02'4 8.4
2018-Jul-09 06:59N 39°22' W 074°02'4 8.4
2018-Jul-09 06:30N 39°27' W 074°02'4 8.4
2018-Jul-09 05:59N 39°31' W 074°02'4 8.4
2018-Jul-09 05:28N 39°35' W 074°02'4 8.5
2018-Jul-09 04:58N 39°39' W 074°02'4 8.6
2018-Jul-09 04:30N 39°43' W 074°03'4 7.6
2018-Jul-09 04:00N 39°46' W 074°06'  

Dump ship's entire track history